createdAt,value
2018-04-22T00:02:23.571Z,96759.16
2018-04-22T00:05:46.510Z,96760.64
2018-04-22T00:09:10.125Z,96756.78
2018-04-22T00:12:32.976Z,96751.85
2018-04-22T00:15:55.825Z,96758.60
2018-04-22T00:19:18.726Z,96743.67
2018-04-22T00:22:41.585Z,96750.78
2018-04-22T00:26:04.456Z,96752.53
2018-04-22T00:29:27.282Z,96748.83
2018-04-22T00:32:50.140Z,96744.17
2018-04-22T00:36:13.014Z,96738.36
2018-04-22T00:39:36.647Z,96745.16
2018-04-22T00:42:59.551Z,96743.72
2018-04-22T00:46:22.409Z,96730.55
2018-04-22T00:49:45.320Z,96736.61
2018-04-22T00:53:08.173Z,96736.47
2018-04-22T00:56:31.056Z,96738.85
2018-04-22T00:59:54.656Z,96736.05
2018-04-22T01:03:17.514Z,96728.34
2018-04-22T01:06:40.352Z,96728.12
2018-04-22T01:10:03.222Z,96724.20
2018-04-22T01:13:26.072Z,96728.38
2018-04-22T01:16:49.008Z,96725.59
2018-04-22T01:20:12.630Z,96730.51
2018-04-22T01:23:35.469Z,96721.64
2018-04-22T01:26:58.355Z,96732.76
2018-04-22T01:30:21.982Z,96726.09
2018-04-22T01:33:44.827Z,96729.61
2018-04-22T01:37:07.683Z,96729.77
2018-04-22T01:40:30.600Z,96737.66
2018-04-22T01:43:53.514Z,96725.67
2018-04-22T01:47:16.366Z,96736.53
2018-04-22T01:50:39.228Z,96733.92
2018-04-22T01:54:02.172Z,96737.03
2018-04-22T01:57:25.777Z,96727.86
2018-04-22T02:00:48.621Z,96731.55
2018-04-22T02:04:11.498Z,96729.89
2018-04-22T02:07:35.158Z,96724.77
2018-04-22T02:10:58.766Z,96733.33
2018-04-22T02:14:21.622Z,96731.25
2018-04-22T02:17:44.455Z,96735.34
2018-04-22T02:21:07.301Z,96734.48
2018-04-22T02:24:30.165Z,96734.38
2018-04-22T02:27:53.010Z,96734.41
2018-04-22T02:31:15.877Z,96740.80
2018-04-22T02:34:38.788Z,96741.86
2018-04-22T02:38:01.635Z,96737.89
2018-04-22T02:41:24.466Z,96745.63
2018-04-22T02:44:47.331Z,96747.77
2018-04-22T02:48:10.167Z,96741.47
2018-04-22T02:51:33.022Z,96738.73
2018-04-22T02:54:55.866Z,96736.20
2018-04-22T02:58:18.727Z,96743.88
2018-04-22T03:01:41.657Z,96738.13
2018-04-22T03:05:05.301Z,96740.11
2018-04-22T03:08:28.920Z,96734.69
2018-04-22T03:11:51.847Z,96731.73
2018-04-22T03:15:14.697Z,96736.96
2018-04-22T03:18:37.541Z,96737.03
2018-04-22T03:22:00.380Z,96732.91
2018-04-22T03:25:23.261Z,96732.41
2018-04-22T03:28:46.890Z,96727.66
2018-04-22T03:32:09.752Z,96732.17
2018-04-22T03:35:32.677Z,96727.22
2018-04-22T03:38:55.584Z,96738.41
2018-04-22T03:42:18.425Z,96741.64
2018-04-22T03:45:41.275Z,96739.28
2018-04-22T03:49:04.125Z,96739.66
2018-04-22T03:52:26.982Z,96761.89
2018-04-22T03:55:49.828Z,96757.35
2018-04-22T03:59:12.673Z,96757.11
2018-04-22T04:02:35.510Z,96753.56
2018-04-22T04:05:58.362Z,96751.92
2018-04-22T04:09:21.200Z,96755.38
2018-04-22T04:12:44.087Z,96747.77
2018-04-22T04:16:08.719Z,96758.67
2018-04-22T04:19:43.288Z,96753.95
2018-04-22T04:23:06.250Z,96754.37
2018-04-22T04:30:27.768Z,96746.53
2018-04-22T04:33:50.674Z,96752.64
2018-04-22T04:37:13.582Z,96755.10
2018-04-22T04:40:36.429Z,96756.20
2018-04-22T04:43:59.276Z,96755.41
2018-04-22T04:47:22.116Z,96762.63
2018-04-22T04:50:45.014Z,96755.05
2018-04-22T04:54:08.622Z,96754.86
2018-04-22T04:57:31.500Z,96756.75
2018-04-22T05:00:55.126Z,96763.86
2018-04-22T05:04:18.084Z,96771.65
2018-04-22T05:07:40.953Z,96763.92
2018-04-22T05:11:03.839Z,96759.58
2018-04-22T05:14:27.474Z,96763.43
2018-04-22T05:17:50.364Z,96773.41
2018-04-22T05:21:22.014Z,96775.94
2018-04-22T05:24:44.879Z,96782.33
2018-04-22T05:28:07.908Z,96780.31
2018-04-22T05:31:30.794Z,96780.18
2018-04-22T05:34:53.838Z,96777.73
2018-04-22T05:38:17.715Z,96776.86
2018-04-22T05:41:40.625Z,96784.91
2018-04-22T05:45:03.532Z,96787.34
2018-04-22T05:48:26.485Z,96784.36
2018-04-22T05:51:49.339Z,96784.97
2018-04-22T05:55:12.248Z,96784.64
2018-04-22T05:58:35.118Z,96791.55
2018-04-22T06:01:58.023Z,96787.88
2018-04-22T06:05:20.860Z,96783.98
2018-04-22T06:08:43.737Z,96787.00
2018-04-22T06:12:06.638Z,96788.56
2018-04-22T06:15:29.486Z,96782.47
2018-04-22T06:18:53.212Z,96789.02
2018-04-22T06:22:16.120Z,96786.63
2018-04-22T06:25:39.042Z,96783.13
2018-04-22T06:29:01.994Z,96782.06
2018-04-22T06:32:25.699Z,96775.61
2018-04-22T06:35:48.598Z,96775.13
2018-04-22T06:39:11.447Z,96780.73
2018-04-22T06:42:34.297Z,96776.94
2018-04-22T06:45:58.162Z,96784.05
2018-04-22T06:49:21.006Z,96775.27
2018-04-22T06:52:43.937Z,96778.94
2018-04-22T06:56:06.844Z,96781.59
2018-04-22T06:59:29.735Z,96777.70
2018-04-22T07:02:53.400Z,96770.37
2018-04-22T07:06:16.285Z,96767.86
2018-04-22T07:09:39.204Z,96777.37
2018-04-22T07:13:02.103Z,96773.59
2018-04-22T07:16:24.957Z,96773.17
2018-04-22T07:19:48.833Z,96772.56
2018-04-22T07:23:11.673Z,96780.80
2018-04-22T07:26:34.527Z,96779.56
2018-04-22T07:29:57.453Z,96782.38
2018-04-22T07:33:20.363Z,96781.17
2018-04-22T07:36:43.309Z,96781.65
2018-04-22T07:40:07.043Z,96782.50
2018-04-22T07:43:30.148Z,96792.76
2018-04-22T07:46:53.000Z,96788.86
2018-04-22T07:50:15.886Z,96784.29
2018-04-22T07:53:38.801Z,96784.80
2018-04-22T07:57:01.664Z,96779.27
2018-04-22T08:00:25.583Z,96773.19
2018-04-22T08:03:49.288Z,96772.92
2018-04-22T08:07:12.198Z,96764.17
2018-04-22T08:10:35.143Z,96770.97
2018-04-22T08:13:58.780Z,96776.27
2018-04-22T08:17:23.469Z,96775.18
2018-04-22T08:20:46.560Z,96778.02
2018-04-22T08:24:09.434Z,96778.48
2018-04-22T08:27:33.045Z,96777.63
2018-04-22T08:30:56.796Z,96775.68
2018-04-22T08:34:21.232Z,96780.41
2018-04-22T08:37:44.150Z,96780.31
2018-04-22T08:41:07.009Z,96773.08
2018-04-22T08:44:29.948Z,96771.00
2018-04-22T08:47:53.587Z,96770.20
2018-04-22T08:51:16.414Z,96771.97
2018-04-22T08:54:39.340Z,96767.92
2018-04-22T08:58:02.195Z,96767.34
2018-04-22T09:01:26.071Z,96763.53
2018-04-22T09:04:50.131Z,96761.28
2018-04-22T09:08:12.988Z,96760.30
2018-04-22T09:11:35.850Z,96757.62
2018-04-22T09:14:59.686Z,96761.06
2018-04-22T09:18:22.733Z,96761.91
2018-04-22T09:21:45.632Z,96769.55
2018-04-22T09:25:08.792Z,96764.77
2018-04-22T09:28:33.229Z,96766.44
2018-04-22T09:31:56.061Z,96763.30
2018-04-22T09:35:19.689Z,96763.35
2018-04-22T09:38:42.566Z,96756.16
2018-04-22T09:42:06.164Z,96747.66
2018-04-22T09:45:29.050Z,96757.42
2018-04-22T09:48:52.689Z,96747.67
2018-04-22T09:52:15.558Z,96747.48
2018-04-22T09:55:39.224Z,96744.98
2018-04-22T09:59:02.062Z,96746.66
2018-04-22T10:02:31.317Z,96743.95
2018-04-22T10:05:54.143Z,96746.34
2018-04-22T10:09:17.787Z,96736.67
2018-04-22T10:12:41.546Z,96737.55
2018-04-22T10:16:04.441Z,96735.83
2018-04-22T10:19:28.054Z,96734.62
2018-04-22T10:22:50.893Z,96724.94
2018-04-22T10:26:13.745Z,96721.41
2018-04-22T10:29:36.733Z,96718.75
2018-04-22T10:32:59.995Z,96719.91
2018-04-22T10:36:22.861Z,96712.01
2018-04-22T10:39:45.713Z,96704.06
2018-04-22T10:43:09.599Z,96699.95
2018-04-22T10:46:32.447Z,96690.80
2018-04-22T10:49:55.285Z,96693.97
2018-04-22T10:53:18.129Z,96694.43
2018-04-22T10:56:40.989Z,96685.98
2018-04-22T11:00:03.933Z,96682.25
2018-04-22T11:03:27.550Z,96674.48
2018-04-22T11:06:50.377Z,96681.73
2018-04-22T11:10:15.659Z,96672.58
2018-04-22T11:13:39.714Z,96665.36
2018-04-22T11:17:02.682Z,96667.51
2018-04-22T11:20:25.616Z,96661.52
2018-04-22T11:23:50.584Z,96660.04
2018-04-22T11:27:13.494Z,96655.82
2018-04-22T11:30:36.902Z,96647.25
2018-04-22T11:34:01.007Z,96657.88
2018-04-22T11:37:25.103Z,96648.11
2018-04-22T11:40:47.957Z,96646.80
2018-04-22T11:44:10.983Z,96651.20
2018-04-22T11:47:34.621Z,96646.30
2018-04-22T11:50:58.036Z,96639.97
2018-04-22T11:54:21.207Z,96632.37
2018-04-22T11:57:44.859Z,96635.53
2018-04-22T12:01:08.618Z,96631.55
2018-04-22T12:04:31.554Z,96625.64
2018-04-22T12:07:54.846Z,96621.86
2018-04-22T12:11:18.564Z,96617.86
2018-04-22T12:14:41.522Z,96616.53
2018-04-22T12:18:04.338Z,96615.61
2018-04-22T12:21:28.114Z,96617.58
2018-04-22T12:24:51.246Z,96612.42
2018-04-22T12:28:14.114Z,96603.46
2018-04-22T12:31:37.369Z,96602.73
2018-04-22T12:35:00.203Z,96600.94
2018-04-22T12:38:23.154Z,96604.86
2018-04-22T12:41:46.022Z,96615.20
2018-04-22T12:45:09.690Z,96600.23
2018-04-22T12:48:34.091Z,96592.63
2018-04-22T12:51:56.974Z,96592.27
2018-04-22T12:55:20.575Z,96599.88
2018-04-22T12:58:43.449Z,96598.20
2018-04-22T13:02:06.364Z,96586.48
2018-04-22T13:05:29.236Z,96586.34
2018-04-22T13:08:52.157Z,96577.38
2018-04-22T13:12:15.767Z,96572.22
2018-04-22T13:15:38.833Z,96572.70
2018-04-22T13:19:01.736Z,96569.02
2018-04-22T13:22:24.652Z,96567.66
2018-04-22T13:25:50.771Z,96564.97
2018-04-22T13:29:14.437Z,96557.44
2018-04-22T13:32:37.298Z,96554.36
2018-04-22T13:36:00.250Z,96539.05
2018-04-22T13:39:23.930Z,96535.73
2018-04-22T13:42:49.866Z,96538.84
2018-04-22T13:46:13.459Z,96536.52
2018-04-22T13:49:42.817Z,96526.71
2018-04-22T13:53:05.741Z,96534.00
2018-04-22T13:56:30.413Z,96538.59
2018-04-22T13:59:54.030Z,96527.38
2018-04-22T14:03:17.034Z,96516.81
2018-04-22T14:06:39.882Z,96522.53
2018-04-22T14:10:02.788Z,96509.72
2018-04-22T14:13:25.712Z,96512.27
2018-04-22T14:16:48.562Z,96507.42
2018-04-22T14:20:11.474Z,96503.25
2018-04-22T14:23:34.341Z,96500.19
2018-04-22T14:26:57.178Z,96493.66
2018-04-22T14:30:20.465Z,96489.26
2018-04-22T14:33:53.487Z,96490.00
2018-04-22T14:37:16.359Z,96485.52
2018-04-22T14:40:39.270Z,96483.76
2018-04-22T14:44:14.103Z,96485.33
2018-04-22T14:47:37.051Z,96468.98
2018-04-22T14:51:00.723Z,96476.75
2018-04-22T14:54:23.574Z,96461.45
2018-04-22T14:57:46.501Z,96459.72
2018-04-22T15:01:09.346Z,96454.78
2018-04-22T15:04:35.731Z,96456.81
2018-04-22T15:08:03.953Z,96456.08
2018-04-22T15:11:26.883Z,96456.22
2018-04-22T15:14:50.553Z,96456.40
2018-04-22T15:18:13.476Z,96447.72
2018-04-22T15:21:36.416Z,96456.55
2018-04-22T15:24:59.386Z,96444.85
2018-04-22T15:28:22.244Z,96452.55
2018-04-22T15:31:45.240Z,96444.34
2018-04-22T15:35:08.089Z,96444.66
2018-04-22T15:38:30.954Z,96437.19
2018-04-22T15:41:53.853Z,96440.00
2018-04-22T15:45:16.823Z,96445.92
2018-04-22T15:48:40.759Z,96445.41
2018-04-22T15:52:04.518Z,96440.92
2018-04-22T15:55:29.307Z,96446.64
2018-04-22T16:03:09.022Z,96446.78
2018-04-22T16:06:31.903Z,96440.67
2018-04-22T16:09:55.847Z,96445.84
2018-04-22T16:13:18.980Z,96447.27
2018-04-22T16:16:41.924Z,96439.56
2018-04-22T16:20:05.615Z,96434.35
2018-04-22T16:23:28.468Z,96440.59
2018-04-22T16:26:51.383Z,96439.39
2018-04-22T16:30:14.263Z,96442.17
2018-04-22T16:33:37.951Z,96440.73
2018-04-22T16:37:00.844Z,96436.49
2018-04-22T16:40:23.758Z,96436.80
2018-04-22T16:43:47.858Z,96433.81
2018-04-22T16:47:10.746Z,96434.85
2018-04-22T16:50:34.934Z,96430.75
2018-04-22T16:53:57.799Z,96433.13
2018-04-22T16:57:20.707Z,96437.80
2018-04-22T17:00:43.985Z,96429.43
2018-04-22T17:04:06.905Z,96427.78
2018-04-22T17:07:29.837Z,96430.94
2018-04-22T17:10:52.773Z,96430.44
2018-04-22T17:14:15.747Z,96429.45
2018-04-22T17:17:38.619Z,96433.94
2018-04-22T17:21:01.480Z,96435.01
2018-04-22T17:24:25.876Z,96437.01
2018-04-22T17:27:49.568Z,96433.80
2018-04-22T17:31:12.571Z,96434.08
2018-04-22T17:34:36.318Z,96429.55
2018-04-22T17:37:59.192Z,96436.97
2018-04-22T17:41:22.124Z,96437.04
2018-04-22T17:44:45.387Z,96439.25
2018-04-22T17:48:08.266Z,96443.56
2018-04-22T17:51:32.668Z,96445.16
2018-04-22T17:54:55.625Z,96454.37
2018-04-22T17:58:18.601Z,96445.80
2018-04-22T18:01:41.582Z,96454.98
2018-04-22T18:05:04.388Z,96458.44
2018-04-22T18:08:28.891Z,96456.46
2018-04-22T18:11:51.809Z,96459.00
2018-04-22T18:15:14.696Z,96460.07
2018-04-22T18:18:38.351Z,96462.92
2018-04-22T18:22:01.974Z,96459.30
2018-04-22T18:25:25.855Z,96466.36
2018-04-22T18:28:49.465Z,96465.64
2018-04-22T18:32:12.329Z,96475.41
2018-04-22T18:35:35.386Z,96472.97
2018-04-22T18:38:58.311Z,96477.23
2018-04-22T18:42:21.162Z,96480.41
2018-04-22T18:45:44.092Z,96483.00
2018-04-22T18:49:07.136Z,96488.41
2018-04-22T18:52:29.984Z,96492.54
2018-04-22T19:03:47.329Z,96501.23
2018-04-22T19:07:15.454Z,96510.98
2018-04-22T19:10:38.404Z,96515.04
2018-04-22T19:14:01.459Z,96515.75
2018-04-22T19:17:24.510Z,96520.64
2018-04-22T19:20:47.430Z,96519.23
2018-04-22T19:24:10.666Z,96529.98
2018-04-22T19:27:33.591Z,96527.45
2018-04-22T19:30:56.671Z,96528.83
2018-04-22T19:34:21.033Z,96531.94
2018-04-22T19:37:44.892Z,96541.86
2018-04-22T19:41:07.871Z,96563.70
2018-04-22T19:44:31.200Z,96569.24
2018-04-22T19:47:54.097Z,96568.83
2018-04-22T19:51:17.024Z,96571.81
2018-04-22T19:54:40.946Z,96574.07
2018-04-22T19:58:03.884Z,96576.40
2018-04-22T20:01:26.817Z,96580.59
2018-04-22T20:04:50.470Z,96586.25
2018-04-22T20:08:14.093Z,96588.30
2018-04-22T20:11:37.002Z,96589.54
2018-04-22T20:14:59.923Z,96587.75
2018-04-22T20:18:24.238Z,96592.86
2018-04-22T20:21:47.219Z,96593.87
2018-04-22T20:25:10.148Z,96592.74
2018-04-22T20:28:35.543Z,96595.98
2018-04-22T20:31:58.469Z,96600.38
2018-04-22T20:35:22.133Z,96605.58
2018-04-22T20:38:46.641Z,96605.41
2018-04-22T20:42:10.257Z,96607.53
2018-04-22T20:45:33.262Z,96609.73
2018-04-22T20:48:56.212Z,96621.73
2018-04-22T20:52:19.853Z,96624.35
2018-04-22T20:55:43.461Z,96628.30
2018-04-22T20:59:06.329Z,96633.91
2018-04-22T21:02:29.174Z,96633.09
2018-04-22T21:05:52.011Z,96632.08
2018-04-22T21:09:14.896Z,96636.32
2018-04-22T21:12:38.650Z,96637.84
2018-04-22T21:16:01.532Z,96634.87
2018-04-22T21:19:25.160Z,96635.81
2018-04-22T21:22:48.073Z,96635.11
2018-04-22T21:26:11.067Z,96638.20
2018-04-22T21:29:33.931Z,96630.48
2018-04-22T21:32:57.573Z,96632.27
2018-04-22T21:36:20.487Z,96637.92
2018-04-22T21:39:44.339Z,96641.05
2018-04-22T21:43:07.195Z,96639.57
2018-04-22T21:46:30.126Z,96642.91
2018-04-22T21:49:53.007Z,96647.03
2018-04-22T21:53:16.708Z,96641.18
2018-04-22T21:56:40.794Z,96643.47
2018-04-22T22:00:03.844Z,96648.59
2018-04-22T22:03:26.694Z,96652.48
2018-04-22T22:06:49.544Z,96656.98
2018-04-22T22:10:12.470Z,96655.06
2018-04-22T22:13:35.389Z,96655.74
2018-04-22T22:16:58.237Z,96648.13
2018-04-22T22:20:21.085Z,96655.31
2018-04-22T22:23:43.925Z,96659.30
2018-04-22T22:27:06.834Z,96657.05
2018-04-22T22:30:29.703Z,96668.23
2018-04-22T22:33:52.601Z,96673.08
2018-04-22T22:37:15.450Z,96675.73
2018-04-22T22:40:38.317Z,96676.08
2018-04-22T22:44:01.223Z,96677.67
2018-04-22T22:47:24.169Z,96679.98
2018-04-22T22:50:47.789Z,96679.59
2018-04-22T22:54:10.633Z,96683.25
2018-04-22T22:57:33.485Z,96678.29
2018-04-22T23:00:57.356Z,96689.65
2018-04-22T23:04:20.213Z,96687.14
2018-04-22T23:07:43.042Z,96682.20
2018-04-22T23:11:05.885Z,96685.02
2018-04-22T23:14:28.745Z,96680.89
2018-04-22T23:17:51.588Z,96687.19
2018-04-22T23:21:14.432Z,96685.33
2018-04-22T23:24:37.253Z,96688.48
2018-04-22T23:28:00.867Z,96694.41
2018-04-22T23:31:23.721Z,96690.05
2018-04-22T23:34:46.568Z,96687.67
2018-04-22T23:38:09.406Z,96690.75
2018-04-22T23:41:32.257Z,96688.66
2018-04-22T23:44:55.101Z,96696.66
2018-04-22T23:48:17.945Z,96696.97
2018-04-22T23:51:40.801Z,96697.31
2018-04-22T23:55:03.719Z,96695.42
2018-04-22T23:58:26.585Z,96691.55
